Time;durP1;ratioP1;P1;durP2;ratioP2;P2;SDS_P1;SDS_P2;PMS_P1;PMS_P2;Temp;Humidity;BMP_temperature;BMP_pressure;BME280_temperature;BME280_humidity;BME280_pressure;Samples;Min_cycle;Max_cycle;Signal;HPM_P1;HPM_P2
2021/03/24 00:00:09;;;;;;;39.28;18.23;;;1.90;99.90;;;;;;5045500;28;20033;-81
2021/03/24 00:02:35;;;;;;;38.63;19.15;;;1.90;99.90;;;;;;5045284;28;20025;-82
2021/03/24 00:05:41;;;;;;;40.63;19.27;;;2.00;99.90;;;;;;5045309;28;20040;-81
2021/03/24 00:08:07;;;;;;;39.83;18.17;;;2.00;99.90;;;;;;4968746;28;20073;-81
2021/03/24 00:10:34;;;;;;;37.10;19.23;;;1.90;99.90;;;;;;4969068;28;20115;-81
2021/03/24 00:13:00;;;;;;;40.83;19.38;;;1.80;99.90;;;;;;4969386;28;20066;-81
2021/03/24 00:15:27;;;;;;;44.13;19.40;;;1.80;99.90;;;;;;4968643;28;20094;-81
2021/03/24 00:17:53;;;;;;;40.35;19.55;;;1.80;99.90;;;;;;4968575;28;20235;-81
2021/03/24 00:20:23;;;;;;;39.88;18.55;;;1.80;99.90;;;;;;4984834;28;20070;-81
2021/03/24 00:22:49;;;;;;;38.40;17.10;;;1.90;99.90;;;;;;4984797;28;20031;-81
2021/03/24 00:25:19;;;;;;;40.78;18.75;;;1.80;99.90;;;;;;4984744;28;20049;-81
2021/03/24 00:27:47;;;;;;;40.65;18.00;;;1.80;99.90;;;;;;4984809;28;20266;-81
2021/03/24 00:30:15;;;;;;;38.72;17.88;;;1.90;99.90;;;;;;4968703;28;20034;-81
2021/03/24 00:32:40;;;;;;;35.08;16.95;;;2.00;99.90;;;;;;4984517;28;20042;-81
2021/03/24 00:35:07;;;;;;;35.38;18.00;;;1.80;99.90;;;;;;4984532;28;20068;-82
2021/03/24 00:37:33;;;;;;;36.88;16.95;;;1.80;99.90;;;;;;4984608;28;20046;-81
2021/03/24 00:39:59;;;;;;;36.80;17.40;;;1.80;99.90;;;;;;4985022;28;20049;-81
2021/03/24 00:42:24;;;;;;;33.75;15.40;;;1.80;99.90;;;;;;4985430;28;20030;-81
2021/03/24 00:44:50;;;;;;;35.95;16.90;;;1.80;99.90;;;;;;5013775;28;20045;-81
2021/03/24 00:47:16;;;;;;;31.70;15.43;;;1.80;99.90;;;;;;5061380;28;20030;-81
2021/03/24 00:49:43;;;;;;;30.45;15.13;;;1.70;99.90;;;;;;5061242;28;20032;-81
2021/03/24 00:52:09;;;;;;;39.78;17.25;;;1.70;99.90;;;;;;5046198;28;20040;-81
2021/03/24 00:54:34;;;;;;;36.75;16.20;;;1.80;99.90;;;;;;5044378;28;20030;-81
2021/03/24 00:57:00;;;;;;;34.90;16.27;;;1.80;99.90;;;;;;5044445;28;20037;-81
2021/03/24 00:59:26;;;;;;;31.17;15.23;;;1.70;99.90;;;;;;5060854;28;20056;-81
2021/03/24 01:01:51;;;;;;;36.47;15.88;;;1.70;99.90;;;;;;5044391;28;20025;-81
2021/03/24 01:04:17;;;;;;;37.22;17.63;;;1.60;99.90;;;;;;5044220;28;20187;-81
2021/03/24 01:06:43;;;;;;;38.08;17.45;;;1.60;99.90;;;;;;5044208;28;20025;-81
2021/03/24 01:09:09;;;;;;;34.80;16.75;;;1.50;99.90;;;;;;5044513;28;20088;-81
2021/03/24 01:11:37;;;;;;;41.05;19.08;;;1.60;99.90;;;;;;5060746;28;20055;-81
2021/03/24 01:14:04;;;;;;;43.13;17.73;;;1.60;99.90;;;;;;5060830;28;20037;-81
2021/03/24 01:16:30;;;;;;;38.03;18.45;;;1.60;99.90;;;;;;5044332;28;20033;-81
2021/03/24 01:18:56;;;;;;;39.50;17.20;;;1.70;99.90;;;;;;5027873;28;20052;-81
2021/03/24 01:21:21;;;;;;;39.47;17.90;;;1.70;99.90;;;;;;5044111;28;20121;-81
2021/03/24 01:23:48;;;;;;;46.30;20.80;;;1.70;99.90;;;;;;5044338;28;20505;-81
2021/03/24 01:26:14;;;;;;;40.33;19.23;;;1.60;99.90;;;;;;5044064;28;20030;-81
2021/03/24 01:28:39;;;;;;;54.00;23.30;;;1.60;99.90;;;;;;5044108;28;20041;-81
2021/03/24 01:31:05;;;;;;;39.70;17.90;;;1.80;99.90;;;;;;5044116;28;20043;-81
2021/03/24 01:33:31;;;;;;;41.97;19.13;;;1.70;99.90;;;;;;5043862;28;20030;-81
2021/03/24 01:35:57;;;;;;;49.22;20.85;;;2.10;99.90;;;;;;5043790;28;20057;-81
2021/03/24 01:38:23;;;;;;;43.95;19.13;;;1.90;99.90;;;;;;5044205;28;20045;-81
2021/03/24 01:40:53;;;;;;;44.33;18.33;;;1.80;99.90;;;;;;5031399;28;20056;-81
2021/03/24 01:43:23;;;;;;;42.13;18.08;;;1.70;99.90;;;;;;5031465;28;20033;-81
2021/03/24 01:46:16;;;;;;;43.50;18.85;;;1.70;99.90;;;;;;5031568;28;20034;-81
2021/03/24 01:48:42;;;;;;;41.63;16.80;;;1.90;99.90;;;;;;5031297;28;20033;-81
2021/03/24 01:51:09;;;;;;;45.30;18.35;;;1.70;99.90;;;;;;5047558;28;20059;-81
2021/03/24 01:53:37;;;;;;;51.67;22.20;;;1.70;99.90;;;;;;5047777;28;20033;-81
2021/03/24 01:56:05;;;;;;;44.05;20.67;;;1.80;99.90;;;;;;5047677;28;20374;-81
2021/03/24 01:58:31;;;;;;;45.22;19.10;;;1.70;99.90;;;;;;5064513;28;20038;-81
2021/03/24 02:00:57;;;;;;;41.38;18.00;;;1.70;99.90;;;;;;5047598;28;20033;-81
2021/03/24 02:03:25;;;;;;;42.10;19.10;;;1.60;99.90;;;;;;5048893;28;20045;-81
2021/03/24 02:05:53;;;;;;;40.60;18.50;;;1.60;99.90;;;;;;5047123;28;20097;-81
2021/03/24 02:08:41;;;;;;;53.00;22.02;;;1.80;99.90;;;;;;5047695;28;20037;-81
2021/03/24 02:11:21;;;;;;;48.92;21.55;;;1.70;99.90;;;;;;5063822;28;20497;-81
2021/03/24 02:13:57;;;;;;;42.53;18.70;;;1.60;99.90;;;;;;5047384;28;20557;-81
2021/03/24 02:16:29;;;;;;;49.03;19.80;;;1.60;99.90;;;;;;5063991;28;20034;-81
2021/03/24 02:18:57;;;;;;;45.72;20.70;;;1.60;99.90;;;;;;5047257;28;20237;-81
2021/03/24 02:21:34;;;;;;;43.45;19.10;;;1.60;99.90;;;;;;5030592;28;20478;-81
2021/03/24 02:24:29;;;;;;;41.65;18.05;;;1.50;99.90;;;;;;5047243;28;20453;-81
2021/03/24 02:27:16;;;;;;;38.03;16.80;;;1.40;99.90;;;;;;5023653;28;20048;-81
2021/03/24 02:30:10;;;;;;;42.22;17.77;;;1.40;99.90;;;;;;5047249;28;20037;-81
2021/03/24 02:32:40;;;;;;;40.83;17.42;;;1.40;99.90;;;;;;5022562;28;20440;-81
2021/03/24 02:35:13;;;;;;;45.47;19.92;;;1.40;99.90;;;;;;5030223;28;20124;-81
2021/03/24 02:37:39;;;;;;;48.40;21.05;;;1.40;99.90;;;;;;5030567;28;20037;-81
2021/03/24 02:40:10;;;;;;;45.53;18.90;;;1.50;99.90;;;;;;5046894;28;20109;-81
2021/03/24 02:42:39;;;;;;;46.15;20.42;;;1.30;99.90;;;;;;5030223;28;20030;-81
2021/03/24 02:45:08;;;;;;;43.88;17.17;;;1.30;99.90;;;;;;5047004;28;20068;-81
2021/03/24 02:47:34;;;;;;;40.78;17.55;;;1.20;99.90;;;;;;5030122;28;20129;-81
2021/03/24 02:49:59;;;;;;;48.17;19.10;;;1.30;99.90;;;;;;5045573;28;20033;-81
2021/03/24 02:52:26;;;;;;;43.47;18.70;;;1.30;99.90;;;;;;5062929;28;20033;-81
2021/03/24 02:54:52;;;;;;;47.25;18.88;;;1.30;99.90;;;;;;5063484;28;20061;-81
2021/03/24 02:57:19;;;;;;;45.92;18.92;;;1.30;99.90;;;;;;5046417;28;20053;-81
2021/03/24 02:59:44;;;;;;;45.60;18.42;;;1.10;99.90;;;;;;5063092;28;20069;-81
2021/03/24 03:02:15;;;;;;;48.10;18.63;;;1.00;99.90;;;;;;5046355;28;20032;-81
2021/03/24 03:04:49;;;;;;;43.78;17.67;;;1.20;99.90;;;;;;5046495;28;20029;-81
2021/03/24 03:07:22;;;;;;;40.05;16.67;;;1.10;99.90;;;;;;5046299;28;20393;-81
2021/03/24 03:09:49;;;;;;;44.17;18.25;;;1.00;99.90;;;;;;5046628;28;20040;-81
2021/03/24 03:12:31;;;;;;;44.67;18.65;;;1.00;99.90;;;;;;5046248;28;20021;-81
2021/03/24 03:15:25;;;;;;;45.22;17.95;;;1.10;99.90;;;;;;5062876;28;20056;-81
2021/03/24 03:18:06;;;;;;;44.85;17.70;;;1.10;99.90;;;;;;5046287;28;20057;-81
2021/03/24 03:20:41;;;;;;;43.30;17.70;;;1.10;99.90;;;;;;5046352;28;20041;-81
2021/03/24 03:23:20;;;;;;;41.88;18.10;;;1.10;99.90;;;;;;5046284;28;20036;-81
2021/03/24 03:26:00;;;;;;;42.20;17.15;;;1.00;99.90;;;;;;5046172;28;20033;-81
2021/03/24 03:28:28;;;;;;;39.08;15.68;;;1.00;99.90;;;;;;5046261;28;20095;-81
2021/03/24 03:30:56;;;;;;;40.85;16.08;;;1.00;99.90;;;;;;5046042;28;20044;-81
2021/03/24 03:33:26;;;;;;;43.00;17.60;;;0.90;99.90;;;;;;5046141;28;20021;-81
2021/03/24 03:35:53;;;;;;;39.17;17.35;;;0.90;99.90;;;;;;5029127;28;20064;-81
2021/03/24 03:38:20;;;;;;;40.72;17.52;;;0.90;99.90;;;;;;5029284;28;20041;-81
2021/03/24 03:40:47;;;;;;;46.05;17.95;;;1.00;99.90;;;;;;5045800;28;20080;-81
2021/03/24 03:43:16;;;;;;;40.05;16.60;;;1.00;99.90;;;;;;5029208;28;20033;-81
2021/03/24 03:45:45;;;;;;;40.00;17.33;;;1.00;99.90;;;;;;5045759;28;20045;-82
2021/03/24 03:48:16;;;;;;;43.13;17.42;;;1.00;99.90;;;;;;5045692;28;20080;-81
2021/03/24 03:50:46;;;;;;;44.25;16.55;;;1.00;99.90;;;;;;5025955;28;20061;-81
2021/03/24 03:53:24;;;;;;;39.78;16.73;;;1.00;99.90;;;;;;5042088;28;20375;-81
2021/03/24 03:55:58;;;;;;;45.03;17.75;;;1.00;99.90;;;;;;5009565;28;20025;-81
2021/03/24 03:58:48;;;;;;;44.47;19.02;;;1.00;99.90;;;;;;5009392;28;20046;-81
2021/03/24 04:01:20;;;;;;;44.38;18.05;;;1.20;99.90;;;;;;5041743;28;20050;-81
2021/03/24 04:03:56;;;;;;;41.10;17.05;;;1.20;99.90;;;;;;5009359;28;20042;-81
2021/03/24 04:06:58;;;;;;;47.05;18.92;;;1.20;99.90;;;;;;5008918;28;20034;-81
2021/03/24 04:09:24;;;;;;;48.05;19.02;;;1.20;99.90;;;;;;5041988;28;20034;-81
2021/03/24 04:11:52;;;;;;;46.30;19.60;;;1.40;99.90;;;;;;5008757;28;20026;-81
2021/03/24 04:14:22;;;;;;;46.53;19.10;;;1.40;99.90;;;;;;5008870;28;20100;-81
2021/03/24 04:16:49;;;;;;;36.58;16.75;;;1.40;99.90;;;;;;5051114;28;20204;-81
2021/03/24 04:19:18;;;;;;;45.10;18.65;;;1.30;99.90;;;;;;5028479;28;20330;-81
2021/03/24 04:21:47;;;;;;;44.53;18.95;;;1.50;99.90;;;;;;5046035;28;20080;-81
2021/03/24 04:24:25;;;;;;;42.47;18.70;;;1.50;99.90;;;;;;5028502;28;20079;-81
2021/03/24 04:26:55;;;;;;;49.92;20.83;;;1.60;99.90;;;;;;5045112;28;20022;-81
2021/03/24 04:29:27;;;;;;;52.33;20.77;;;1.50;99.90;;;;;;5045118;28;20029;-81
2021/03/24 04:31:56;;;;;;;48.22;20.75;;;1.70;99.90;;;;;;5028377;28;20124;-81
2021/03/24 04:34:22;;;;;;;48.45;21.23;;;1.70;99.90;;;;;;5028216;28;20043;-82
2021/03/24 04:37:00;;;;;;;46.85;20.23;;;1.70;99.90;;;;;;5044577;28;20029;-81
2021/03/24 04:39:36;;;;;;;47.22;20.25;;;1.60;99.90;;;;;;5044706;28;20473;-81
2021/03/24 04:42:11;;;;;;;47.17;19.95;;;1.50;99.90;;;;;;5044554;28;20054;-81
2021/03/24 04:44:39;;;;;;;44.72;20.20;;;1.50;99.90;;;;;;5044702;28;20034;-81
2021/03/24 04:47:26;;;;;;;47.28;20.17;;;1.70;99.90;;;;;;5028072;28;20393;-81
2021/03/24 04:49:56;;;;;;;49.38;19.88;;;1.50;99.90;;;;;;5044635;28;20037;-81
2021/03/24 04:52:23;;;;;;;;;;;1.60;99.90;;;;;;5044627;28;20021;-81
2021/03/24 04:54:52;;;;;;;52.13;18.45;;;1.60;99.90;;;;;;5044473;28;19909;-81
2021/03/24 04:57:21;;;;;;;43.08;17.85;;;1.60;99.90;;;;;;5061011;28;20037;-81
2021/03/24 04:59:50;;;;;;;43.60;18.15;;;1.60;99.90;;;;;;5060919;28;20048;-82
2021/03/24 05:02:20;;;;;;;46.13;19.48;;;1.50;99.90;;;;;;5060860;28;20032;-81
2021/03/24 05:04:52;;;;;;;49.58;18.25;;;1.30;99.90;;;;;;5060751;28;20099;-80
2021/03/24 05:07:35;;;;;;;42.53;19.10;;;1.30;99.90;;;;;;5061204;28;20035;-81
2021/03/24 05:10:02;;;;;;;46.25;19.38;;;1.30;99.90;;;;;;5060994;28;20041;-81
2021/03/24 05:12:34;;;;;;;50.15;20.88;;;1.20;99.90;;;;;;5060976;28;20025;-81
2021/03/24 05:15:11;;;;;;;42.28;18.67;;;1.30;99.90;;;;;;5060073;28;20065;-81
2021/03/24 05:17:41;;;;;;;42.03;18.13;;;1.20;99.90;;;;;;5047870;28;20025;-81
2021/03/24 05:20:13;;;;;;;41.65;17.38;;;1.10;99.90;;;;;;5040240;28;20029;-82
2021/03/24 05:22:43;;;;;;;45.88;17.27;;;1.10;99.90;;;;;;5051087;28;20029;-81
2021/03/24 05:25:26;;;;;;;37.03;18.17;;;1.10;99.90;;;;;;5032061;28;20478;-81
2021/03/24 05:28:03;;;;;;;45.33;18.40;;;1.10;99.90;;;;;;5024482;28;20034;-82
2021/03/24 05:30:32;;;;;;;38.70;16.75;;;1.00;99.90;;;;;;5007941;28;20466;-81
2021/03/24 05:33:12;;;;;;;45.67;18.43;;;1.10;99.90;;;;;;5020313;28;20037;-82
2021/03/24 05:35:56;;;;;;;41.65;17.60;;;1.20;99.90;;;;;;5043960;28;20280;-82
2021/03/24 05:38:39;;;;;;;43.08;17.85;;;1.20;99.90;;;;;;5043895;28;20052;-81
2021/03/24 05:41:26;;;;;;;40.80;16.35;;;1.10;99.90;;;;;;5043601;28;20070;-82
2021/03/24 05:44:10;;;;;;;43.20;17.48;;;1.20;99.90;;;;;;5060145;28;20029;-81
2021/03/24 05:46:57;;;;;;;38.55;17.10;;;1.20;99.90;;;;;;5043513;28;20034;-81
2021/03/24 05:49:57;;;;;;;40.45;16.73;;;1.30;99.90;;;;;;5060209;28;20029;-82
2021/03/24 05:52:40;;;;;;;43.50;16.15;;;1.40;99.90;;;;;;5023687;28;20053;-81
2021/03/24 05:55:27;;;;;;;37.10;16.58;;;1.40;99.90;;;;;;5023582;28;20033;-81
2021/03/24 05:58:16;;;;;;;38.00;17.33;;;1.30;99.90;;;;;;5028806;28;20049;-82
2021/03/24 06:00:47;;;;;;;41.28;16.67;;;1.50;99.90;;;;;;5009893;28;20034;-82
2021/03/24 06:03:18;;;;;;;42.30;17.65;;;1.50;99.90;;;;;;5053396;28;20029;-82
2021/03/24 06:06:17;;;;;;;39.45;16.52;;;1.50;99.90;;;;;;5043195;28;20036;-82
2021/03/24 06:09:07;;;;;;;40.80;16.88;;;1.50;99.90;;;;;;5059875;28;20033;-82
2021/03/24 06:12:18;;;;;;;39.63;16.65;;;1.50;99.90;;;;;;5043155;28;20034;-82
2021/03/24 06:15:05;;;;;;;43.28;16.67;;;1.70;99.90;;;;;;5036467;28;20447;-83
2021/03/24 06:17:59;;;;;;;43.80;17.33;;;1.90;99.90;;;;;;5041252;28;20490;-81
2021/03/24 06:20:43;;;;;;;46.03;19.75;;;2.00;99.90;;;;;;5041950;28;20053;-81
2021/03/24 06:23:27;;;;;;;47.78;20.30;;;2.10;99.90;;;;;;5059353;28;20099;-82
2021/03/24 06:26:23;;;;;;;45.00;19.15;;;2.20;99.90;;;;;;5045237;28;20036;-82
2021/03/24 06:29:20;;;;;;;49.53;20.50;;;2.20;99.90;;;;;;5046670;28;20033;-82
2021/03/24 06:32:09;;;;;;;47.45;19.75;;;2.40;99.90;;;;;;5046098;28;20030;-82
2021/03/24 06:34:43;;;;;;;44.38;19.02;;;2.50;99.90;;;;;;5046516;28;20033;-83
2021/03/24 06:37:36;;;;;;;45.83;20.52;;;2.50;99.90;;;;;;5063144;28;20110;-82
2021/03/24 06:40:16;;;;;;;56.75;24.83;;;2.60;99.90;;;;;;5046103;28;20048;-83
2021/03/24 06:43:16;;;;;;;47.40;21.38;;;2.80;99.90;;;;;;5046283;28;20260;-83
2021/03/24 06:45:56;;;;;;;46.25;21.17;;;2.80;99.90;;;;;;5045608;28;20033;-82
2021/03/24 06:48:46;;;;;;;50.33;21.63;;;3.00;99.90;;;;;;5045846;28;20125;-83
2021/03/24 06:52:00;;;;;;;54.25;24.50;;;3.00;99.90;;;;;;5046172;28;20076;-82
2021/03/24 06:55:02;;;;;;;50.63;23.20;;;3.30;99.90;;;;;;5027403;28;20041;-84
2021/03/24 06:57:48;;;;;;;58.95;24.92;;;3.40;99.90;;;;;;5045988;28;20026;-84
2021/03/24 07:00:19;;;;;;;49.35;24.38;;;3.70;99.90;;;;;;5029579;28;20057;-84
2021/03/24 07:03:20;;;;;;;59.00;27.38;;;3.70;99.90;;;;;;5045940;28;20044;-83
2021/03/24 07:06:08;;;;;;;50.90;25.40;;;3.80;99.90;;;;;;5029168;28;20033;-84
2021/03/24 07:08:49;;;;;;;55.33;25.10;;;3.90;99.90;;;;;;5029547;28;20029;-84
2021/03/24 07:11:23;;;;;;;53.38;23.33;;;4.10;99.90;;;;;;5045793;28;20056;-84
2021/03/24 07:14:17;;;;;;;54.78;25.55;;;4.00;99.90;;;;;;5030033;28;20371;-84
2021/03/24 07:16:45;;;;;;;51.53;24.88;;;4.20;99.90;;;;;;5032363;28;20052;-84
2021/03/24 07:19:26;;;;;;;58.15;26.80;;;4.30;99.90;;;;;;5031185;28;20041;-84
2021/03/24 07:22:18;;;;;;;58.95;28.80;;;4.40;99.90;;;;;;5063754;28;20025;-84
2021/03/24 07:24:50;;;;;;;57.72;26.67;;;4.50;99.90;;;;;;5062911;28;20038;-85
2021/03/24 07:27:41;;;;;;;55.17;25.90;;;4.70;99.90;;;;;;5029117;28;20053;-84
2021/03/24 07:30:48;;;;;;;56.33;28.30;;;4.70;99.90;;;;;;5029205;28;20105;-84
2021/03/24 07:33:35;;;;;;;51.03;24.73;;;4.90;99.90;;;;;;5062087;28;20436;-85
2021/03/24 07:36:29;;;;;;;60.53;28.80;;;5.10;99.90;;;;;;5045119;28;20047;-84
2021/03/24 07:39:23;;;;;;;59.95;30.27;;;5.10;99.90;;;;;;5029095;28;20140;-84
2021/03/24 07:42:04;;;;;;;56.40;28.13;;;5.30;99.90;;;;;;5061779;28;20034;-84
2021/03/24 07:44:49;;;;;;;52.28;27.85;;;5.40;99.90;;;;;;5028859;28;20060;-84
2021/03/24 07:47:45;;;;;;;56.35;26.70;;;5.50;99.90;;;;;;5028769;28;20029;-84
2021/03/24 07:50:26;;;;;;;60.75;29.83;;;5.70;99.90;;;;;;5045364;28;20068;-84
2021/03/24 07:53:12;;;;;;;63.50;32.50;;;5.80;99.90;;;;;;5045071;28;20030;-84
2021/03/24 07:55:50;;;;;;;58.72;29.40;;;6.00;99.90;;;;;;5045107;28;20026;-85
2021/03/24 07:58:44;;;;;;;59.00;29.55;;;6.10;99.90;;;;;;5061780;28;20037;-85
2021/03/24 08:01:16;;;;;;;63.95;27.98;;;6.20;99.90;;;;;;5044995;28;20093;-84
2021/03/24 08:04:08;;;;;;;62.13;31.33;;;6.30;99.90;;;;;;5044984;28;20036;-85
2021/03/24 08:06:52;;;;;;;58.50;31.70;;;6.50;99.90;;;;;;5044739;28;20033;-85
2021/03/24 08:09:36;;;;;;;59.20;29.98;;;6.50;99.90;;;;;;5044938;28;20030;-85
2021/03/24 08:12:38;;;;;;;65.95;34.88;;;6.60;99.90;;;;;;5044451;28;20068;-84
2021/03/24 08:15:21;;;;;;;62.45;31.17;;;6.80;99.90;;;;;;5025766;28;20474;-84
2021/03/24 08:18:19;;;;;;;60.70;30.42;;;7.00;99.90;;;;;;5041370;28;20083;-84
2021/03/24 08:21:04;;;;;;;56.25;28.52;;;7.10;99.90;;;;;;5041252;28;20038;-84
2021/03/24 08:23:56;;;;;;;49.95;27.02;;;7.30;99.90;;;;;;5041557;28;20052;-85
2021/03/24 08:26:35;;;;;;;59.72;30.60;;;7.40;99.90;;;;;;5041334;28;20090;-84
2021/03/24 08:29:28;;;;;;;58.33;28.65;;;7.50;99.90;;;;;;5008568;28;20030;-84
2021/03/24 08:32:28;;;;;;;62.65;35.67;;;7.60;99.90;;;;;;5041084;28;20040;-85
2021/03/24 08:35:19;;;;;;;66.70;35.67;;;7.70;99.90;;;;;;5041183;28;20103;-85
2021/03/24 08:38:13;;;;;;;55.63;29.55;;;7.80;99.90;;;;;;5041299;28;20029;-85
2021/03/24 08:40:59;;;;;;;55.10;28.60;;;8.00;99.90;;;;;;5041147;28;20402;-84
2021/03/24 08:43:52;;;;;;;61.22;29.83;;;8.10;99.90;;;;;;5024395;28;20036;-84
2021/03/24 08:46:32;;;;;;;58.65;30.52;;;8.30;99.90;;;;;;5036622;28;20130;-84
2021/03/24 08:49:11;;;;;;;65.80;36.13;;;8.40;99.90;;;;;;5040772;28;20041;-84
2021/03/24 08:51:36;;;;;;;64.88;34.20;;;8.40;99.90;;;;;;5053960;28;20041;-84
2021/03/24 08:54:14;;;;;;;75.68;38.97;;;8.50;99.90;;;;;;5027597;28;20044;-85
2021/03/24 08:57:02;;;;;;;65.35;34.83;;;8.60;99.90;;;;;;5027609;28;20033;-84
2021/03/24 08:59:30;;;;;;;66.18;35.20;;;8.90;99.90;;;;;;5044242;28;20052;-84
2021/03/24 09:02:34;;;;;;;77.90;40.88;;;9.00;99.90;;;;;;5045049;28;20139;-84
2021/03/24 09:05:26;;;;;;;63.40;33.92;;;8.90;99.90;;;;;;5060721;28;20212;-84
2021/03/24 09:08:24;;;;;;;62.35;32.42;;;9.20;99.90;;;;;;5080477;22;20049;-83
2021/03/24 09:11:13;;;;;;;63.40;31.08;;;9.50;99.90;;;;;;5064269;28;20041;-84
2021/03/24 09:13:52;;;;;;;62.65;32.03;;;9.60;99.90;;;;;;5047649;28;20033;-84
2021/03/24 09:16:52;;;;;;;56.85;31.67;;;9.70;99.90;;;;;;5064196;28;20092;-84
2021/03/24 09:19:42;;;;;;;61.35;32.63;;;9.90;99.90;;;;;;5064160;28;20040;-84
2021/03/24 09:22:29;;;;;;;58.08;31.58;;;9.80;99.90;;;;;;5063888;28;20083;-85
2021/03/24 09:25:37;;;;;;;60.08;32.20;;;10.00;99.90;;;;;;5064229;28;20033;-85
2021/03/24 09:28:20;;;;;;;66.45;33.17;;;10.10;99.90;;;;;;5026677;28;20053;-84
2021/03/24 09:31:21;;;;;;;54.33;29.55;;;10.30;99.90;;;;;;5063358;28;20029;-85
2021/03/24 09:33:58;;;;;;;55.72;30.27;;;10.30;99.90;;;;;;5064126;28;20044;-85
2021/03/24 09:36:41;;;;;;;66.35;35.50;;;10.50;99.90;;;;;;5064008;28;20029;-84
2021/03/24 09:39:29;;;;;;;60.30;33.97;;;10.50;99.90;;;;;;5063866;28;20096;-85
2021/03/24 09:42:01;;;;;;;58.97;32.97;;;10.50;99.90;;;;;;5060286;28;20037;-84
2021/03/24 09:44:43;;;;;;;56.58;30.83;;;10.70;99.90;;;;;;5080351;28;20055;-84
2021/03/24 09:47:26;;;;;;;52.30;28.58;;;11.10;99.90;;;;;;5063851;28;20029;-85
2021/03/24 09:50:18;;;;;;;63.00;31.48;;;11.00;99.90;;;;;;5063736;28;21106;-85
2021/03/24 09:52:46;;;;;;;56.25;28.63;;;11.10;99.90;;;;;;5035259;28;20034;-85
2021/03/24 09:55:12;;;;;;;56.45;30.42;;;11.10;99.90;;;;;;5043786;28;20136;-85
2021/03/24 09:57:57;;;;;;;53.95;30.10;;;11.20;99.90;;;;;;5027220;28;20029;-85
2021/03/24 10:00:24;;;;;;;63.75;32.83;;;11.40;99.90;;;;;;5045059;28;20044;-85
2021/03/24 10:03:05;;;;;;;59.92;32.45;;;11.60;99.90;;;;;;5047014;28;20104;-85
2021/03/24 10:05:55;;;;;;;61.58;32.88;;;11.60;99.90;;;;;;5047282;28;20044;-85
2021/03/24 10:08:39;;;;;;;57.65;30.48;;;11.60;99.90;;;;;;5030935;28;20041;-85
2021/03/24 10:11:09;;;;;;;58.67;29.35;;;11.80;99.90;;;;;;5047042;28;20044;-84
2021/03/24 10:13:45;;;;;;;57.72;29.23;;;11.90;99.90;;;;;;5047206;28;20466;-85
2021/03/24 10:16:28;;;;;;;55.72;28.55;;;12.20;99.90;;;;;;5048091;28;20088;-85
2021/03/24 10:19:22;;;;;;;68.90;32.08;;;12.20;99.90;;;;;;5030432;28;20172;-85
2021/03/24 10:21:54;;;;;;;53.63;29.27;;;12.20;99.90;;;;;;5030220;28;20037;-85
2021/03/24 10:24:25;;;;;;;55.30;29.60;;;12.60;99.90;;;;;;5030756;28;20041;-86
2021/03/24 10:26:55;;;;;;;54.83;29.60;;;12.70;99.90;;;;;;5030601;28;20032;-85
2021/03/24 10:29:29;;;;;;;52.80;28.38;;;12.80;99.90;;;;;;5030331;28;20493;-85
2021/03/24 10:32:04;;;;;;;50.08;27.05;;;13.00;99.90;;;;;;5030386;28;20034;-86
2021/03/24 10:34:41;;;;;;;45.45;24.30;;;13.10;99.90;;;;;;5030575;28;20033;-85
2021/03/24 10:37:06;;;;;;;46.53;27.52;;;12.90;99.90;;;;;;5046977;28;20033;-85
2021/03/24 10:39:37;;;;;;;54.42;29.08;;;12.80;99.90;;;;;;5030058;28;20038;-84
2021/03/24 10:42:28;;;;;;;48.78;27.98;;;12.60;99.90;;;;;;5046750;28;20052;-86
2021/03/24 10:45:16;;;;;;;50.60;26.50;;;13.00;99.90;;;;;;5030762;28;20039;-86
2021/03/24 10:48:05;;;;;;;53.17;27.13;;;13.20;99.90;;;;;;5030471;28;20036;-85
2021/03/24 10:50:55;;;;;;;49.25;24.15;;;13.10;99.90;;;;;;5031727;28;20855;-85
2021/03/24 10:53:30;;;;;;;49.47;26.23;;;13.60;99.90;;;;;;5046743;28;20034;-85
2021/03/24 10:56:23;;;;;;;49.10;26.63;;;13.50;99.90;;;;;;5030186;28;20466;-85
2021/03/24 10:58:59;;;;;;;41.50;22.10;;;13.50;99.90;;;;;;5046572;28;20092;-86
2021/03/24 11:01:43;;;;;;;43.40;22.58;;;13.80;99.90;;;;;;5046305;28;20025;-86
2021/03/24 11:04:26;;;;;;;39.72;22.65;;;13.80;99.90;;;;;;5030008;28;20109;-86
2021/03/24 11:07:03;;;;;;;41.05;22.52;;;13.70;99.90;;;;;;5029183;28;20107;-86
2021/03/24 11:10:00;;;;;;;43.88;22.52;;;13.80;99.90;;;;;;5046438;28;20037;-85
2021/03/24 11:12:37;;;;;;;39.78;22.10;;;14.10;99.90;;;;;;5028626;28;20033;-86
2021/03/24 11:15:15;;;;;;;42.05;22.35;;;14.00;99.90;;;;;;5029851;28;20037;-86
2021/03/24 11:17:43;;;;;;;46.28;22.58;;;14.00;99.90;;;;;;5063275;28;20044;-86
2021/03/24 11:20:43;;;;;;;35.22;19.65;;;13.50;99.90;;;;;;5066052;28;20521;-85
2021/03/24 11:23:14;;;;;;;40.40;20.90;;;14.00;99.90;;;;;;5066161;28;20029;-86
2021/03/24 11:25:48;;;;;;;35.75;19.60;;;14.00;99.90;;;;;;5049373;28;20032;-86
2021/03/24 11:28:29;;;;;;;45.80;23.08;;;14.30;99.90;;;;;;5065995;28;20064;-86
2021/03/24 11:31:06;;;;;;;31.25;16.08;;;14.30;99.90;;;;;;5065874;28;20033;-86
2021/03/24 11:33:44;;;;;;;37.88;18.73;;;14.50;99.90;;;;;;5066195;28;20041;-86
2021/03/24 11:36:31;;;;;;;36.38;19.40;;;14.30;99.90;;;;;;5049051;28;20109;-86
2021/03/24 11:39:15;;;;;;;43.72;23.55;;;14.50;99.90;;;;;;5048844;28;20045;-85
2021/03/24 11:41:43;;;;;;;42.30;21.10;;;14.50;99.90;;;;;;5049020;28;20036;-85
2021/03/24 11:44:10;;;;;;;37.63;19.55;;;14.70;99.90;;;;;;5049127;28;20084;-85
2021/03/24 11:46:42;;;;;;;40.15;20.48;;;14.60;99.90;;;;;;5048760;28;20037;-86
2021/03/24 11:49:32;;;;;;;34.55;19.52;;;14.90;99.90;;;;;;5065590;28;20029;-86
2021/03/24 11:52:26;;;;;;;32.78;17.50;;;14.70;99.90;;;;;;5048687;28;20033;-85
2021/03/24 11:55:06;;;;;;;33.15;17.33;;;15.00;99.90;;;;;;5082169;28;20040;-86
2021/03/24 11:57:44;;;;;;;32.85;17.60;;;15.30;99.90;;;;;;5048903;28;20059;-86
2021/03/24 12:00:18;;;;;;;27.30;14.90;;;15.30;99.90;;;;;;5065245;28;20396;-86
2021/03/24 12:03:34;;;;;;;35.55;18.77;;;15.10;99.90;;;;;;5065320;28;20085;-85
2021/03/24 12:06:22;;;;;;;38.13;21.58;;;14.40;99.90;;;;;;5055983;28;20040;-86
2021/03/24 12:08:48;;;;;;;34.55;18.30;;;14.60;99.90;;;;;;5066434;28;20048;-85
2021/03/24 12:11:30;;;;;;;30.58;17.55;;;15.00;99.90;;;;;;5064734;28;20037;-86
2021/03/24 12:14:20;;;;;;;31.48;15.68;;;14.80;99.90;;;;;;5048462;28;20098;-85
2021/03/24 12:16:53;;;;;;;;;;;14.70;99.90;;;;;;5048573;28;20036;-86
2021/03/24 12:19:40;;;;;;;26.92;15.48;;;14.60;99.90;;;;;;5047991;28;19917;-85
2021/03/24 12:22:18;;;;;;;30.48;15.30;;;14.90;99.90;;;;;;5064502;28;20270;-86
2021/03/24 12:24:46;;;;;;;25.83;14.18;;;15.10;99.90;;;;;;5064884;28;20043;-87
2021/03/24 12:27:18;;;;;;;24.73;13.70;;;15.20;99.90;;;;;;5064669;28;20092;-85
2021/03/24 12:30:06;;;;;;;31.80;14.95;;;15.40;99.90;;;;;;5065959;28;20096;-85
2021/03/24 12:32:35;;;;;;;34.33;17.80;;;15.00;99.90;;;;;;5064491;28;20085;-85
2021/03/24 12:35:04;;;;;;;29.95;14.75;;;14.90;99.90;;;;;;5064438;28;20029;-86
2021/03/24 12:37:40;;;;;;;28.27;14.98;;;15.20;99.90;;;;;;5065953;28;20097;-86
2021/03/24 12:40:19;;;;;;;25.38;13.98;;;15.20;99.90;;;;;;5064378;28;20519;-86
2021/03/24 12:42:47;;;;;;;25.85;12.93;;;15.40;99.90;;;;;;5064211;28;20120;-85
2021/03/24 12:45:31;;;;;;;27.10;14.02;;;15.70;99.90;;;;;;5081119;28;20040;-86
2021/03/24 12:48:12;;;;;;;26.98;13.55;;;15.40;99.90;;;;;;5064267;28;20025;-85
2021/03/24 12:50:43;;;;;;;30.33;15.23;;;15.60;99.90;;;;;;5080804;28;20037;-85
2021/03/24 12:53:21;;;;;;;33.90;15.65;;;15.60;99.90;;;;;;5047672;28;20033;-86
2021/03/24 12:56:07;;;;;;;26.02;12.85;;;15.60;99.90;;;;;;5064303;28;20041;-84
2021/03/24 12:58:48;;;;;;;24.42;13.18;;;15.60;99.90;;;;;;5047761;28;20478;-86
2021/03/24 13:01:43;;;;;;;29.15;14.35;;;15.70;99.90;;;;;;5064073;28;20429;-85
2021/03/24 13:04:46;;;;;;;25.25;13.00;;;15.60;99.90;;;;;;5047530;28;20036;-85
2021/03/24 13:07:47;;;;;;;24.15;12.43;;;15.80;99.90;;;;;;5080282;28;20048;-86
2021/03/24 13:10:19;;;;;;;22.98;12.10;;;15.70;99.90;;;;;;5052784;28;20041;-85
2021/03/24 13:12:54;;;;;;;32.70;15.48;;;15.70;99.90;;;;;;5080650;28;20028;-85
2021/03/24 13:15:47;;;;;;;25.60;12.55;;;15.90;99.90;;;;;;5047339;28;20029;-85
2021/03/24 13:18:30;;;;;;;24.67;12.05;;;15.90;99.90;;;;;;5029305;28;20033;-84
2021/03/24 13:21:24;;;;;;;19.02;10.07;;;16.00;99.90;;;;;;5064817;28;20033;-85
2021/03/24 13:24:21;;;;;;;25.58;14.23;;;16.20;99.90;;;;;;5047173;28;20485;-84
2021/03/24 13:26:47;;;;;;;23.48;12.43;;;16.10;99.90;;;;;;5063686;28;20021;-85
2021/03/24 13:29:37;;;;;;;27.02;14.57;;;16.10;99.90;;;;;;5063618;28;20411;-85
2021/03/24 13:32:25;;;;;;;24.55;12.82;;;15.90;99.90;;;;;;5063666;28;20028;-85